createdAt,value
2024-02-03T00:00:10.008Z,96815.91
2024-02-03T00:01:11.947Z,96811.66
2024-02-03T00:02:16.333Z,96810.03
2024-02-03T00:03:20.519Z,96807.41
2024-02-03T00:04:24.681Z,96801.91
2024-02-03T00:05:26.419Z,96803.84
2024-02-03T00:06:28.208Z,96798.16
2024-02-03T00:07:33.687Z,96806.09
2024-02-03T00:08:35.405Z,96807.41
2024-02-03T00:09:41.493Z,96801.84
2024-02-03T00:10:43.361Z,96806.53
2024-02-03T00:11:50.173Z,96809.97
2024-02-03T00:12:52.351Z,96808.53
2024-02-03T00:13:54.530Z,96810.03
2024-02-03T00:14:57.097Z,96805.78
2024-02-03T00:16:00.985Z,96801.69
2024-02-03T00:17:03.555Z,96808.22
2024-02-03T00:18:06.093Z,96813.75
2024-02-03T00:19:07.937Z,96805.13
2024-02-03T00:20:10.546Z,96809.50
2024-02-03T00:21:12.396Z,96808.53
2024-02-03T00:22:14.719Z,96805.63
2024-02-03T00:23:16.786Z,96806.44
2024-02-03T00:24:18.551Z,96811.50
2024-02-03T00:25:20.226Z,96799.84
2024-02-03T00:26:22.139Z,96806.88
2024-02-03T00:27:24.202Z,96811.66
2024-02-03T00:28:28.942Z,96814.09
2024-02-03T00:29:30.731Z,96808.91
2024-02-03T00:30:32.448Z,96807.34
2024-02-03T00:31:36.657Z,96815.06
2024-02-03T00:32:40.714Z,96807.25
2024-02-03T00:33:44.945Z,96808.09
2024-02-03T00:34:49.557Z,96814.09
2024-02-03T00:35:51.415Z,96811.38
2024-02-03T00:36:53.103Z,96809.97
2024-02-03T00:37:57.326Z,96809.50
2024-02-03T00:39:01.898Z,96814.72
2024-02-03T00:40:07.279Z,96811.59
2024-02-03T00:41:09.017Z,96810.41
2024-02-03T00:42:11.009Z,96812.34
2024-02-03T00:43:16.084Z,96812.25
2024-02-03T00:44:17.892Z,96813.22
2024-02-03T00:45:22.766Z,96812.69
2024-02-03T00:46:24.525Z,96808.91
2024-02-03T00:47:26.155Z,96810.50
2024-02-03T00:48:31.122Z,96805.56
2024-02-03T00:49:33.327Z,96805.25
2024-02-03T00:50:35.171Z,96809.34
2024-02-03T00:51:36.979Z,96808.75
2024-02-03T00:52:38.822Z,96808.16
2024-02-03T00:53:42.664Z,96801.00
2024-02-03T00:54:49.318Z,96800.03
2024-02-03T00:55:51.125Z,96810.47
2024-02-03T00:56:52.736Z,96807.41
2024-02-03T00:57:54.547Z,96808.75
2024-02-03T00:58:58.498Z,96808.25
2024-02-03T01:00:00.404Z,96807.81
2024-02-03T01:01:04.579Z,96808.19
2024-02-03T01:02:07.449Z,96805.75
2024-02-03T01:03:09.644Z,96805.75
2024-02-03T01:04:11.594Z,96803.00
2024-02-03T01:05:13.504Z,96806.44
2024-02-03T01:06:17.783Z,96809.03
2024-02-03T01:07:19.468Z,96804.16
2024-02-03T01:08:23.618Z,96801.66
2024-02-03T01:09:25.536Z,96796.97
2024-02-03T01:10:28.029Z,96801.91
2024-02-03T01:11:29.756Z,96796.53
2024-02-03T01:12:31.487Z,96798.50
2024-02-03T01:13:33.454Z,96797.78
2024-02-03T01:14:35.197Z,96799.41
2024-02-03T01:15:36.918Z,96801.28
2024-02-03T01:16:41.193Z,96800.69
2024-02-03T01:17:45.358Z,96804.09
2024-02-03T01:18:49.911Z,96806.84
2024-02-03T01:19:51.793Z,96805.34
2024-02-03T01:20:53.943Z,96796.56
2024-02-03T01:21:55.758Z,96799.19
2024-02-03T01:22:57.610Z,96804.38
2024-02-03T01:23:59.194Z,96800.34
2024-02-03T01:25:03.162Z,96797.84
2024-02-03T01:26:05.065Z,96801.09
2024-02-03T01:27:06.979Z,96801.78
2024-02-03T01:28:08.754Z,96793.97
2024-02-03T01:29:10.603Z,96793.69
2024-02-03T01:30:12.299Z,96796.50
2024-02-03T01:31:14.133Z,96789.06
2024-02-03T01:32:18.244Z,96794.44
2024-02-03T01:33:19.977Z,96794.47
2024-02-03T01:34:24.175Z,96788.84
2024-02-03T01:35:25.977Z,96787.72
2024-02-03T01:36:27.639Z,96788.59
2024-02-03T01:37:29.356Z,96784.59
2024-02-03T01:38:31.164Z,96786.06
2024-02-03T01:39:32.829Z,96783.69
2024-02-03T01:40:34.634Z,96776.25
2024-02-03T01:41:36.549Z,96774.03
2024-02-03T01:42:38.317Z,96774.69
2024-02-03T01:43:43.112Z,96772.75
2024-02-03T01:44:45.303Z,96773.44
2024-02-03T01:45:49.711Z,96776.72
2024-02-03T01:46:51.488Z,96777.28
2024-02-03T01:47:53.349Z,96766.88
2024-02-03T01:48:55.565Z,96774.56
2024-02-03T01:49:57.764Z,96776.03
2024-02-03T01:51:01.182Z,96769.47
2024-02-03T01:52:06.636Z,96774.69
2024-02-03T01:53:09.552Z,96770.31
2024-02-03T01:54:15.342Z,96771.28
2024-02-03T01:55:18.483Z,96772.91
2024-02-03T01:56:23.526Z,96770.16
2024-02-03T01:57:26.923Z,96768.22
2024-02-03T01:58:29.817Z,96769.47
2024-02-03T01:59:32.696Z,96774.84
2024-02-03T02:12:38.363Z,96760.22
2024-02-03T02:13:40.346Z,96765.72
2024-02-03T02:14:42.145Z,96768.16
2024-02-03T02:15:46.608Z,96763.13
2024-02-03T02:16:51.085Z,96760.22
2024-02-03T02:18:02.233Z,96761.31
2024-02-03T02:19:04.227Z,96764.75
2024-02-03T02:20:12.294Z,96765.72
2024-02-03T02:21:14.114Z,96760.53
2024-02-03T02:22:15.874Z,96761.50
2024-02-03T02:23:17.989Z,96766.00
2024-02-03T02:24:19.749Z,96757.50
2024-02-03T02:25:21.605Z,96755.88
2024-02-03T02:26:25.912Z,96757.81
2024-02-03T02:27:27.531Z,96755.72
2024-02-03T02:28:29.488Z,96755.13
2024-02-03T02:29:31.259Z,96755.66
2024-02-03T02:30:32.995Z,96755.19
2024-02-03T02:31:37.764Z,96754.06
2024-02-03T02:32:39.766Z,96752.69
2024-02-03T02:33:41.669Z,96754.16
2024-02-03T02:34:45.640Z,96754.81
2024-02-03T02:35:51.012Z,96749.63
2024-02-03T02:36:52.804Z,96749.63
2024-02-03T02:37:54.767Z,96750.59
2024-02-03T02:38:58.818Z,96746.72
2024-02-03T02:40:00.705Z,96745.09
2024-02-03T02:41:02.729Z,96746.06
2024-02-03T02:42:08.010Z,96735.94
2024-02-03T02:43:10.058Z,96744.72
2024-02-03T02:44:11.908Z,96742.28
2024-02-03T02:45:13.905Z,96743.06
2024-02-03T02:46:16.793Z,96739.78
2024-02-03T02:47:18.523Z,96741.06
2024-02-03T02:48:23.111Z,96743.94
2024-02-03T02:49:25.013Z,96743.16
2024-02-03T02:50:26.858Z,96734.13
2024-02-03T02:51:31.222Z,96736.34
2024-02-03T02:52:33.624Z,96735.00
2024-02-03T02:53:35.376Z,96731.06
2024-02-03T02:54:37.399Z,96721.06
2024-02-03T02:55:41.443Z,96728.38
2024-02-03T02:56:45.593Z,96729.34
2024-02-03T02:57:47.462Z,96739.19
2024-02-03T02:58:49.233Z,96733.47
2024-02-03T02:59:53.416Z,96735.97
2024-02-03T03:00:55.288Z,96729.06
2024-02-03T03:01:59.443Z,96731.84
2024-02-03T03:03:03.648Z,96732.94
2024-02-03T03:04:05.633Z,96733.59
2024-02-03T03:05:13.205Z,96736.06
2024-02-03T03:06:17.614Z,96737.03
2024-02-03T03:07:20.280Z,96730.72
2024-02-03T03:08:22.561Z,96732.09
2024-02-03T03:09:24.458Z,96730.16
2024-02-03T03:10:26.409Z,96723.06
2024-02-03T03:11:28.173Z,96722.63
2024-02-03T03:12:29.935Z,96718.38
2024-02-03T03:13:31.796Z,96716.75
2024-02-03T03:14:33.385Z,96719.75
2024-02-03T03:15:35.201Z,96714.81
2024-02-03T03:16:37.086Z,96705.91
2024-02-03T03:17:38.856Z,96711.78
2024-02-03T03:18:40.850Z,96708.25
2024-02-03T03:19:42.989Z,96709.31
2024-02-03T03:20:44.846Z,96708.50
2024-02-03T03:21:46.636Z,96709.03
2024-02-03T03:22:48.833Z,96713.13
2024-02-03T03:23:50.617Z,96713.44
2024-02-03T03:24:52.559Z,96711.78
2024-02-03T03:25:58.124Z,96712.09
2024-02-03T03:26:59.924Z,96724.13
2024-02-03T03:28:07.540Z,96720.69
2024-02-03T03:29:10.216Z,96721.66
2024-02-03T03:30:12.579Z,96731.25
2024-02-03T03:31:16.776Z,96723.44
2024-02-03T03:32:21.244Z,96728.78
2024-02-03T03:33:23.028Z,96738.38
2024-02-03T03:34:25.018Z,96729.06
2024-02-03T03:35:27.076Z,96735.78
2024-02-03T03:36:28.877Z,96736.47
2024-02-03T03:37:32.936Z,96731.78
2024-02-03T03:38:36.361Z,96731.25
2024-02-03T03:39:38.184Z,96720.84
2024-02-03T03:40:42.555Z,96726.06
2024-02-03T03:41:46.814Z,96726.34
2024-02-03T03:42:50.401Z,96722.78
2024-02-03T03:43:52.436Z,96726.06
2024-02-03T03:44:54.253Z,96730.28
2024-02-03T03:45:56.651Z,96727.97
2024-02-03T03:47:03.347Z,96735.13
2024-02-03T03:48:05.467Z,96737.81
2024-02-03T03:49:09.499Z,96734.53
2024-02-03T03:50:11.286Z,96737.00
2024-02-03T03:51:13.054Z,96742.91
2024-02-03T03:52:14.806Z,96734.56
2024-02-03T03:53:16.506Z,96737.28
2024-02-03T03:54:18.368Z,96733.03
2024-02-03T03:55:22.665Z,96740.84
2024-02-03T03:56:24.380Z,96730.16
2024-02-03T03:57:26.172Z,96730.97
2024-02-03T03:58:27.906Z,96731.00
2024-02-03T03:59:32.316Z,96733.72
2024-02-03T04:00:34.850Z,96733.47
2024-02-03T04:01:39.553Z,96735.13
2024-02-03T04:02:43.288Z,96738.97
2024-02-03T04:03:45.134Z,96734.97
2024-02-03T04:04:47.054Z,96744.28
2024-02-03T04:05:48.779Z,96736.47
2024-02-03T04:06:52.920Z,96738.28
2024-02-03T04:07:54.697Z,96739.78
2024-02-03T04:08:57.058Z,96739.00
2024-02-03T04:09:58.783Z,96734.09
2024-02-03T04:11:00.627Z,96733.50
2024-02-03T04:12:02.491Z,96736.78
2024-02-03T04:13:04.470Z,96735.53
2024-02-03T04:14:08.150Z,96735.69
2024-02-03T04:15:10.117Z,96729.66
2024-02-03T04:16:11.975Z,96724.44
2024-02-03T04:17:14.202Z,96731.75
2024-02-03T04:18:16.090Z,96722.88
2024-02-03T04:19:18.109Z,96722.31
2024-02-03T04:20:22.150Z,96723.28
2024-02-03T04:21:27.762Z,96726.84
2024-02-03T04:22:29.588Z,96725.63
2024-02-03T04:23:33.455Z,96734.72
2024-02-03T04:24:36.014Z,96731.25
2024-02-03T04:25:38.045Z,96727.03
2024-02-03T04:26:39.779Z,96728.66
2024-02-03T04:27:44.093Z,96729.63
2024-02-03T04:28:47.157Z,96732.22
2024-02-03T04:29:51.280Z,96732.50
2024-02-03T04:30:53.037Z,96727.31
2024-02-03T04:31:54.897Z,96735.78
2024-02-03T04:32:57.040Z,96733.03
2024-02-03T04:34:00.913Z,96736.47
2024-02-03T04:35:02.859Z,96734.66
2024-02-03T04:36:05.662Z,96740.88
2024-02-03T04:37:10.349Z,96742.91
2024-02-03T04:38:12.138Z,96743.72
2024-02-03T04:39:14.371Z,96743.75
2024-02-03T04:40:16.088Z,96745.91
2024-02-03T04:41:23.998Z,96745.91
2024-02-03T04:42:27.933Z,96746.31
2024-02-03T04:43:29.616Z,96744.84
2024-02-03T04:44:31.280Z,96746.47
2024-02-03T04:45:32.982Z,96751.00
2024-02-03T04:46:34.572Z,96742.13
2024-02-03T04:47:36.501Z,96743.31
2024-02-03T04:48:43.365Z,96738.78
2024-02-03T04:49:47.773Z,96738.66
2024-02-03T04:50:50.166Z,96740.44
2024-02-03T04:51:54.174Z,96737.72
2024-02-03T04:52:56.112Z,96746.19
2024-02-03T04:53:57.810Z,96735.13
2024-02-03T04:54:59.521Z,96736.19
2024-02-03T04:56:01.185Z,96731.56
2024-02-03T04:57:02.801Z,96729.81
2024-02-03T04:58:04.601Z,96725.97
2024-02-03T04:59:08.639Z,96728.28
2024-02-03T05:02:15.923Z,96719.88
2024-02-03T05:03:17.620Z,96726.84
2024-02-03T05:04:19.449Z,96720.31
2024-02-03T05:05:21.280Z,96723.97
2024-02-03T05:06:25.968Z,96719.59
2024-02-03T05:07:30.411Z,96721.63
2024-02-03T05:08:32.891Z,96720.38
2024-02-03T05:09:34.680Z,96726.00
2024-02-03T05:10:36.395Z,96720.00
2024-02-03T05:11:38.200Z,96721.22
2024-02-03T05:12:40.061Z,96722.59
2024-02-03T05:13:41.732Z,96730.94
2024-02-03T05:14:43.373Z,96719.72
2024-02-03T05:15:45.390Z,96718.34
2024-02-03T05:16:52.103Z,96725.06
2024-02-03T05:17:53.881Z,96719.69
2024-02-03T05:18:55.981Z,96729.81
2024-02-03T05:20:00.285Z,96719.28
2024-02-03T05:21:02.036Z,96726.13
2024-02-03T05:22:03.901Z,96730.09
2024-02-03T05:23:05.638Z,96725.56
2024-02-03T05:24:07.326Z,96727.38
2024-02-03T05:25:09.673Z,96721.91
2024-02-03T05:26:11.429Z,96726.53
2024-02-03T05:27:12.986Z,96730.78
2024-02-03T05:28:14.824Z,96736.25
2024-02-03T05:29:16.388Z,96733.38
2024-02-03T05:30:18.140Z,96730.50
2024-02-03T05:31:25.958Z,96728.19
2024-02-03T05:32:27.654Z,96729.44
2024-02-03T05:33:29.398Z,96729.31
2024-02-03T05:34:31.392Z,96717.94
2024-02-03T05:35:33.141Z,96729.03
2024-02-03T05:36:34.798Z,96731.50
2024-02-03T05:37:36.569Z,96724.94
2024-02-03T05:38:38.120Z,96735.22
2024-02-03T05:39:39.955Z,96737.38
2024-02-03T05:40:41.754Z,96738.06
2024-02-03T05:41:43.368Z,96740.53
2024-02-03T05:42:45.077Z,96741.88
2024-02-03T05:43:46.854Z,96742.44
2024-02-03T05:44:48.523Z,96738.22
2024-02-03T05:45:50.424Z,96740.25
2024-02-03T05:46:52.400Z,96745.16
2024-02-03T05:47:54.166Z,96739.16
2024-02-03T05:48:55.819Z,96744.09
2024-02-03T05:49:57.734Z,96735.72
2024-02-03T05:50:59.631Z,96750.91
2024-02-03T05:52:01.414Z,96738.47
2024-02-03T05:53:04.558Z,96739.97
2024-02-03T05:54:07.346Z,96738.84
2024-02-03T05:55:09.417Z,96745.44
2024-02-03T05:56:11.231Z,96740.50
2024-02-03T05:57:15.592Z,96740.22
2024-02-03T05:58:17.938Z,96743.38
2024-02-03T05:59:33.342Z,96747.59
2024-02-03T06:00:40.462Z,96740.66
2024-02-03T06:01:42.335Z,96741.31
2024-02-03T06:02:44.376Z,96742.97
2024-02-03T06:03:48.726Z,96742.13
2024-02-03T06:04:50.476Z,96740.22
2024-02-03T06:06:06.146Z,96732.28
2024-02-03T06:07:15.690Z,96737.75
2024-02-03T06:08:17.580Z,96737.47
2024-02-03T06:09:19.731Z,96731.72
2024-02-03T06:10:21.518Z,96736.41
2024-02-03T06:11:23.136Z,96734.09
2024-02-03T06:12:25.099Z,96733.69
2024-02-03T06:13:27.145Z,96735.84
2024-02-03T06:14:28.837Z,96733.13
2024-02-03T06:15:30.544Z,96738.50
2024-02-03T06:16:34.850Z,96726.56
2024-02-03T06:17:36.447Z,96730.41
2024-02-03T06:18:38.370Z,96729.19
2024-02-03T06:19:43.569Z,96726.72
2024-02-03T06:20:45.989Z,96733.69
2024-02-03T06:21:48.886Z,96733.00
2024-02-03T06:22:50.715Z,96728.78
2024-02-03T06:23:52.382Z,96721.94
2024-02-03T06:24:54.191Z,96723.56
2024-02-03T06:25:56.102Z,96724.13
2024-02-03T06:26:57.657Z,96727.41
2024-02-03T06:27:59.395Z,96718.09
2024-02-03T06:29:01.097Z,96721.94
2024-02-03T06:30:05.543Z,96730.97
2024-02-03T06:31:07.340Z,96727.13
2024-02-03T06:32:09.291Z,96730.28
2024-02-03T06:33:11.112Z,96725.78
2024-02-03T06:34:15.694Z,96726.34
2024-02-03T06:35:17.477Z,96727.97
2024-02-03T06:36:19.328Z,96733.97
2024-02-03T06:37:21.102Z,96730.97
2024-02-03T06:38:25.149Z,96733.28
2024-02-03T06:39:29.096Z,96738.06
2024-02-03T06:40:30.887Z,96735.19
2024-02-03T06:41:32.491Z,96734.13
2024-02-03T06:42:34.160Z,96736.72
2024-02-03T06:43:41.810Z,96725.22
2024-02-03T06:44:45.329Z,96726.84
2024-02-03T06:45:48.541Z,96731.25
2024-02-03T06:46:50.334Z,96723.84
2024-02-03T06:47:52.036Z,96728.09
2024-02-03T06:48:53.905Z,96727.53
2024-02-03T06:49:55.929Z,96740.25
2024-02-03T06:50:57.697Z,96738.06
2024-02-03T06:51:59.315Z,96738.50
2024-02-03T06:53:01.130Z,96743.25
2024-02-03T06:54:02.864Z,96742.03
2024-02-03T06:55:05.541Z,96745.44
2024-02-03T06:56:09.648Z,96734.78
2024-02-03T06:57:11.390Z,96736.69
2024-02-03T06:58:13.074Z,96739.16
2024-02-03T06:59:14.827Z,96733.56
2024-02-03T07:00:19.362Z,96737.66
2024-02-03T07:01:21.236Z,96734.53
2024-02-03T07:02:23.088Z,96735.19
2024-02-03T07:03:24.694Z,96732.75
2024-02-03T07:04:26.469Z,96733.97
2024-02-03T07:05:28.323Z,96739.72
2024-02-03T07:06:29.988Z,96737.25
2024-02-03T07:07:31.791Z,96735.06
2024-02-03T07:08:33.588Z,96738.06
2024-02-03T07:09:35.201Z,96740.53
2024-02-03T07:10:37.063Z,96737.41
2024-02-03T07:11:39.846Z,96744.91
2024-02-03T07:12:44.287Z,96743.00
2024-02-03T07:13:46.125Z,96744.34
2024-02-03T07:14:47.879Z,96751.19
2024-02-03T07:15:50.161Z,96747.91
2024-02-03T07:16:51.875Z,96743.81
2024-02-03T07:17:54.024Z,96735.88
2024-02-03T07:18:55.927Z,96740.00
2024-02-03T07:19:57.769Z,96749.28
2024-02-03T07:20:59.601Z,96748.88
2024-02-03T07:22:01.291Z,96737.81
2024-02-03T07:23:02.945Z,96744.09
2024-02-03T07:24:04.654Z,96746.28
2024-02-03T07:25:06.548Z,96744.75
2024-02-03T07:26:08.258Z,96746.13
2024-02-03T07:27:10.838Z,96746.13
2024-02-03T07:28:12.851Z,96740.66
2024-02-03T07:29:18.672Z,96739.56
2024-02-03T07:30:20.558Z,96741.88
2024-02-03T07:31:25.988Z,96739.97
2024-02-03T07:32:27.671Z,96740.09
2024-02-03T07:33:29.826Z,96745.97
2024-02-03T07:34:31.916Z,96749.25
2024-02-03T07:35:33.918Z,96741.44
2024-02-03T07:36:36.115Z,96749.66
2024-02-03T07:37:37.795Z,96750.34
2024-02-03T07:38:39.353Z,96738.84
2024-02-03T07:39:41.206Z,96752.00
2024-02-03T07:40:43.051Z,96742.69
2024-02-03T07:41:46.834Z,96749.25
2024-02-03T07:42:48.709Z,96748.13
2024-02-03T07:43:50.518Z,96745.91
2024-02-03T07:44:52.117Z,96740.47
2024-02-03T07:45:53.909Z,96742.22
2024-02-03T07:47:00.183Z,96743.31
2024-02-03T07:48:01.971Z,96747.94
2024-02-03T07:49:05.383Z,96748.47
2024-02-03T07:50:08.756Z,96748.88
2024-02-03T07:51:10.719Z,96744.88
2024-02-03T07:52:12.564Z,96751.72
2024-02-03T07:53:14.146Z,96747.75
2024-02-03T07:54:15.963Z,96746.91
2024-02-03T07:55:18.323Z,96744.84
2024-02-03T07:56:22.136Z,96754.28
2024-02-03T07:57:26.257Z,96750.44
2024-02-03T07:58:28.011Z,96748.94
2024-02-03T07:59:31.823Z,96741.97
2024-02-03T08:02:25.264Z,96744.84
2024-02-03T08:03:27.235Z,96738.56
2024-02-03T08:04:29.088Z,96742.34
2024-02-03T08:05:30.847Z,96739.59
2024-02-03T08:06:32.688Z,96740.41
2024-02-03T08:07:34.607Z,96733.56
2024-02-03T08:08:36.412Z,96730.50
2024-02-03T08:09:38.237Z,96736.59
2024-02-03T08:10:40.008Z,96728.28
2024-02-03T08:11:41.600Z,96722.78
2024-02-03T08:12:43.428Z,96718.38
2024-02-03T08:13:45.182Z,96727.41
2024-02-03T08:14:46.797Z,96726.06
2024-02-03T08:15:50.845Z,96727.41
2024-02-03T08:16:56.570Z,96723.38
2024-02-03T08:18:00.459Z,96721.75
2024-02-03T08:19:02.670Z,96727.91
2024-02-03T08:20:09.762Z,96725.19
2024-02-03T08:21:12.336Z,96723.25
2024-02-03T08:22:14.544Z,96722.13
2024-02-03T08:23:18.849Z,96721.69
2024-02-03T08:24:20.980Z,96712.75
2024-02-03T08:25:22.836Z,96709.19
2024-02-03T08:26:24.489Z,96708.44
2024-02-03T08:27:28.309Z,96710.03
2024-02-03T08:28:30.199Z,96708.78
2024-02-03T08:29:31.787Z,96705.91
2024-02-03T08:30:33.470Z,96711.09
2024-02-03T08:31:35.246Z,96703.34
2024-02-03T08:32:37.237Z,96707.22
2024-02-03T08:33:39.110Z,96703.44
2024-02-03T08:35:18.169Z,96710.34
2024-02-03T08:36:09.412Z,96705.53
2024-02-03T08:37:11.583Z,96707.69
2024-02-03T08:38:15.994Z,96711.63
2024-02-03T08:40:22.880Z,96707.97
2024-02-03T08:41:24.681Z,96710.94
2024-02-03T08:42:26.333Z,96713.19
2024-02-03T08:43:28.049Z,96711.16
2024-02-03T08:44:29.819Z,96704.53
2024-02-03T08:45:31.527Z,96705.78
2024-02-03T08:46:33.268Z,96698.56
2024-02-03T08:47:34.907Z,96706.53
2024-02-03T08:48:38.824Z,96704.63
2024-02-03T08:49:51.059Z,96698.81
2024-02-03T08:50:52.960Z,96708.34
2024-02-03T08:51:54.920Z,96699.25
2024-02-03T08:52:56.648Z,96697.13
2024-02-03T08:53:58.326Z,96694.34
2024-02-03T08:55:01.364Z,96697.66
2024-02-03T08:56:07.289Z,96698.00
2024-02-03T08:57:09.069Z,96701.94
2024-02-03T08:58:10.643Z,96700.91
2024-02-03T08:59:12.565Z,96694.59
2024-02-03T09:00:14.999Z,96694.81
2024-02-03T09:01:19.005Z,96696.78
2024-02-03T09:02:20.831Z,96697.97
2024-02-03T09:03:22.669Z,96686.06
2024-02-03T09:04:24.525Z,96688.50
2024-02-03T09:05:26.367Z,96696.84
2024-02-03T09:06:28.294Z,96686.47
2024-02-03T09:07:30.050Z,96686.66
2024-02-03T09:08:34.047Z,96685.22
2024-02-03T09:09:38.868Z,96685.38
2024-02-03T09:10:40.605Z,96685.56
2024-02-03T09:11:42.186Z,96680.16
2024-02-03T09:12:46.406Z,96681.34
2024-02-03T09:13:50.678Z,96677.09
2024-02-03T09:14:52.281Z,96687.88
2024-02-03T09:15:54.208Z,96678.75
2024-02-03T09:16:57.108Z,96680.41
2024-02-03T09:17:58.924Z,96667.41
2024-02-03T09:19:00.882Z,96676.53
2024-02-03T09:20:03.716Z,96681.13
2024-02-03T09:21:09.769Z,96679.81
2024-02-03T09:22:11.827Z,96684.38
2024-02-03T09:23:13.654Z,96682.09
2024-02-03T09:24:16.285Z,96689.28
2024-02-03T09:25:18.115Z,96692.38
2024-02-03T09:26:19.725Z,96687.00
2024-02-03T09:27:21.506Z,96697.09
2024-02-03T09:28:23.282Z,96699.88
2024-02-03T09:29:24.981Z,96693.16
2024-02-03T09:30:29.053Z,96694.81
2024-02-03T09:31:30.870Z,96694.97
2024-02-03T09:32:32.598Z,96694.81
2024-02-03T09:33:37.574Z,96693.50
2024-02-03T09:34:39.688Z,96688.59
2024-02-03T09:35:41.870Z,96691.34
2024-02-03T09:37:51.362Z,96691.97
2024-02-03T09:38:53.214Z,96696.06
2024-02-03T09:39:56.508Z,96693.28
2024-02-03T09:40:58.613Z,96692.78
2024-02-03T09:42:00.660Z,96687.84
2024-02-03T09:43:02.685Z,96695.34
2024-02-03T09:44:05.849Z,96684.56
2024-02-03T09:45:07.883Z,96681.44
2024-02-03T09:46:30.213Z,96675.69
2024-02-03T09:47:32.128Z,96675.53
2024-02-03T09:48:34.032Z,96678.94
2024-02-03T09:49:35.913Z,96675.63
2024-02-03T09:50:39.782Z,96678.75
2024-02-03T09:51:42.218Z,96671.53
2024-02-03T09:52:46.206Z,96674.13
2024-02-03T09:54:09.399Z,96679.84
2024-02-03T09:55:32.767Z,96672.44
2024-02-03T09:56:53.426Z,96676.34
2024-02-03T09:57:58.753Z,96688.59
2024-02-03T09:59:02.955Z,96674.22
2024-02-03T10:00:06.873Z,96679.59
2024-02-03T10:01:11.142Z,96674.50
2024-02-03T10:02:31.765Z,96673.81
2024-02-03T10:03:33.929Z,96680.75
2024-02-03T10:04:42.076Z,96673.31
2024-02-03T10:06:06.314Z,96667.69
2024-02-03T10:07:20.734Z,96670.41
2024-02-03T10:08:22.457Z,96670.56
2024-02-03T10:09:27.566Z,96668.16
2024-02-03T10:11:42.294Z,96667.22
2024-02-03T10:12:44.071Z,96666.16
2024-02-03T10:13:48.452Z,96673.53
2024-02-03T10:15:03.176Z,96667.94
2024-02-03T10:16:05.422Z,96675.72
2024-02-03T10:17:09.045Z,96677.00
2024-02-03T10:18:10.785Z,96671.22
2024-02-03T10:19:31.444Z,96675.94
2024-02-03T10:20:36.099Z,96673.59
2024-02-03T10:21:37.920Z,96669.59
2024-02-03T10:22:42.232Z,96676.13
2024-02-03T10:23:53.189Z,96676.41
2024-02-03T10:25:13.942Z,96672.81
2024-02-03T10:26:16.897Z,96666.22
2024-02-03T10:27:25.947Z,96672.53
2024-02-03T10:28:30.041Z,96665.78
2024-02-03T10:29:32.100Z,96665.06
2024-02-03T10:30:35.961Z,96665.47
2024-02-03T10:31:49.229Z,96668.09
2024-02-03T10:33:12.892Z,96669.38
2024-02-03T10:34:15.731Z,96659.34
2024-02-03T10:35:17.666Z,96664.88
2024-02-03T10:36:19.645Z,96666.13
2024-02-03T10:37:23.681Z,96659.50
2024-02-03T10:38:25.531Z,96660.72
2024-02-03T10:39:27.497Z,96650.66
2024-02-03T10:40:32.184Z,96660.41
2024-02-03T10:41:39.985Z,96654.78
2024-02-03T10:42:47.014Z,96651.81
2024-02-03T10:44:12.234Z,96645.19
2024-02-03T10:45:17.014Z,96658.25
2024-02-03T10:46:20.385Z,96650.81
2024-02-03T10:47:23.046Z,96646.81
2024-02-03T10:48:27.603Z,96653.53
2024-02-03T10:49:49.650Z,96653.16
2024-02-03T10:51:00.542Z,96651.16
2024-02-03T10:52:06.631Z,96655.69
2024-02-03T10:53:12.738Z,96652.69
2024-02-03T10:54:18.708Z,96652.94
2024-02-03T10:55:22.663Z,96647.50
2024-02-03T10:56:30.428Z,96643.50
2024-02-03T10:57:32.283Z,96638.50
2024-02-03T10:58:34.708Z,96635.28
2024-02-03T10:59:36.532Z,96644.25
2024-02-03T11:02:17.829Z,96635.53
2024-02-03T11:03:22.921Z,96628.38
2024-02-03T11:04:27.165Z,96630.91
2024-02-03T11:05:32.631Z,96630.56
2024-02-03T11:06:35.074Z,96638.78
2024-02-03T11:07:44.691Z,96645.56
2024-02-03T11:08:46.384Z,96631.50
2024-02-03T11:09:51.252Z,96629.78
2024-02-03T11:10:56.084Z,96631.81
2024-02-03T11:11:58.447Z,96623.97
2024-02-03T11:13:22.257Z,96627.03
2024-02-03T11:14:26.043Z,96619.03
2024-02-03T11:15:30.293Z,96625.53
2024-02-03T11:16:37.868Z,96627.56
2024-02-03T11:17:44.208Z,96630.88
2024-02-03T11:18:50.359Z,96627.50
2024-02-03T11:19:55.443Z,96621.59
2024-02-03T11:21:07.596Z,96622.09
2024-02-03T11:22:09.366Z,96621.91
2024-02-03T11:23:14.914Z,96621.94
2024-02-03T11:24:18.778Z,96617.22
2024-02-03T11:25:21.043Z,96614.25
2024-02-03T11:26:25.174Z,96616.28
2024-02-03T11:27:27.149Z,96610.91
2024-02-03T11:28:35.498Z,96610.31
2024-02-03T11:29:38.178Z,96611.00
2024-02-03T11:30:42.759Z,96606.34
2024-02-03T11:31:44.541Z,96606.97
2024-02-03T11:32:46.455Z,96603.47
2024-02-03T11:33:48.425Z,96605.38
2024-02-03T11:34:50.469Z,96604.78
2024-02-03T11:36:01.562Z,96598.91
2024-02-03T11:37:04.021Z,96591.22
2024-02-03T11:38:10.607Z,96599.72
2024-02-03T11:39:13.458Z,96593.09
2024-02-03T11:40:15.432Z,96595.94
2024-02-03T11:41:17.783Z,96592.91
2024-02-03T11:42:19.550Z,96590.88
2024-02-03T11:43:21.194Z,96596.88
2024-02-03T11:44:48.094Z,96595.16
2024-02-03T11:45:55.502Z,96591.09
2024-02-03T11:46:59.938Z,96591.31
2024-02-03T11:48:05.988Z,96591.72
2024-02-03T11:49:07.959Z,96590.31
2024-02-03T11:50:12.434Z,96585.28
2024-02-03T11:51:16.379Z,96595.03
2024-02-03T11:52:20.346Z,96593.00
2024-02-03T11:53:27.039Z,96593.81
2024-02-03T11:54:29.543Z,96587.75
2024-02-03T11:55:31.359Z,96586.94
2024-02-03T11:56:33.094Z,96587.75
2024-02-03T11:57:34.893Z,96591.44
2024-02-03T11:58:36.748Z,96587.78
2024-02-03T11:59:38.376Z,96588.97
2024-02-03T12:00:40.092Z,96578.06
2024-02-03T12:01:41.905Z,96589.81
2024-02-03T12:02:43.719Z,96585.75
2024-02-03T12:03:45.522Z,96583.34
2024-02-03T12:04:47.485Z,96581.31
2024-02-03T12:05:49.084Z,96576.84
2024-02-03T12:06:55.469Z,96576.25
2024-02-03T12:07:57.629Z,96580.94
2024-02-03T12:08:59.336Z,96581.53
2024-02-03T12:10:01.115Z,96573.22
2024-02-03T12:11:04.336Z,96576.06
2024-02-03T12:12:12.236Z,96573.84
2024-02-03T12:13:13.937Z,96570.19
2024-02-03T12:14:15.813Z,96566.34
2024-02-03T12:15:17.760Z,96565.94
2024-02-03T12:16:19.504Z,96565.53
2024-02-03T12:17:21.479Z,96560.69
2024-02-03T12:18:23.400Z,96567.38
2024-02-03T12:19:25.973Z,96560.88
2024-02-03T12:20:27.931Z,96552.97
2024-02-03T12:21:29.797Z,96557.84
2024-02-03T12:22:35.551Z,96558.25
2024-02-03T12:23:39.362Z,96556.41
2024-02-03T12:24:41.194Z,96548.50
2024-02-03T12:25:45.711Z,96553.38
2024-02-03T12:26:48.677Z,96541.38
2024-02-03T12:27:50.748Z,96549.50
2024-02-03T12:28:53.907Z,96550.91
2024-02-03T12:29:55.792Z,96545.22
2024-02-03T12:31:09.053Z,96549.25
2024-02-03T12:32:10.793Z,96545.19
2024-02-03T12:33:12.671Z,96544.41
2024-02-03T12:34:15.005Z,96541.31
2024-02-03T12:35:17.152Z,96540.94
2024-02-03T12:36:20.364Z,96540.69
2024-02-03T12:37:22.198Z,96552.47
2024-02-03T12:38:24.715Z,96546.38
2024-02-03T12:39:27.851Z,96548.00
2024-02-03T12:40:30.485Z,96539.06
2024-02-03T12:41:32.438Z,96536.97
2024-02-03T12:42:34.373Z,96526.78
2024-02-03T12:43:36.959Z,96529.41
2024-02-03T12:44:41.018Z,96534.28